»·PEaware :: N796TM KPSP-KBFL

N796TM :: KPSP-KBFL

FLIGHT INFORMATION

Flight Status: Arrived
Operator: Privately registered:
United States
More flights under this callsign
Pilot: Thomas J. (32264)
Aircraft: SOCATA TBM-900
(TBM9)
More flights by this aircraft type
Origin: KPSP Palm Springs Intl
United States
Destination: KBFL Meadows
United States
More flights between these airports :: More routes between these airports
Route: PSP V386 PMD FASTO2
File this flight plan on PilotEdge
Remarks:
Altitude:
(Current/Filed)
12,000ft
Speed:
(Current/Filed)
180kts
Departed: 30-Dec-20 09:24 AM
Arrived: 30-Dec-20 10:18 AM
Distance/Time
Traveled:
158nm/0:54
Distance/Time
To Go:
Arrived

Flight Plot

Page will automatically refresh every two minutes.

Flight plan parsing failed; only flown route is shown


Map Options




Map Legend


Flown Route
Filed Route
Departure Airport
Arrival Airport
Navaid (VOR, NDB)
Fix

Horizontal Profiles

Position Reports

Time Latitude Longitude Heading Altitude Ground
Speed
30-Dec-20 09:06 33.825676 -116.507595 56 423ft 0kts
30-Dec-20 09:07 33.825676 -116.507595 56 423ft 0kts
30-Dec-20 09:08 33.825676 -116.507595 56 423ft 0kts
30-Dec-20 09:09 33.825676 -116.507595 56 423ft 0kts
30-Dec-20 09:10 33.825676 -116.507595 56 423ft 0kts
30-Dec-20 09:11 33.825676 -116.507595 56 423ft 0kts
30-Dec-20 09:12 33.825676 -116.507595 56 423ft 0kts
30-Dec-20 09:13 33.825676 -116.507595 56 423ft 0kts
30-Dec-20 09:14 33.825676 -116.507595 56 423ft 0kts
30-Dec-20 09:15 33.825676 -116.507595 56 423ft 0kts
30-Dec-20 09:16 33.825777 -116.507217 55 423ft 1kts
30-Dec-20 09:17 33.824839 -116.505406 144 419ft 21kts
30-Dec-20 09:18 33.818960 -116.500198 143 401ft 19kts
30-Dec-20 09:19 33.818530 -116.499144 88 400ft 0kts
30-Dec-20 09:20 33.818530 -116.499108 90 400ft 0kts
30-Dec-20 09:21 33.818521 -116.499031 95 400ft 0kts
30-Dec-20 09:23 33.819428 -116.498543 325 402ft 21kts
30-Dec-20 09:24 33.841016 -116.520352 320 1549ft 110kts
30-Dec-20 09:25 33.867163 -116.546622 323 3003ft 113kts
30-Dec-20 09:26 33.899315 -116.570762 0 4528ft 156kts
30-Dec-20 09:27 33.914120 -116.521445 37 6405ft 165kts
30-Dec-20 09:28 33.955970 -116.506358 11 8434ft 155kts
30-Dec-20 09:29 33.998583 -116.494106 11 10484ft 147kts
30-Dec-20 09:30 34.041107 -116.496973 348 12019ft 176kts
30-Dec-20 09:31 34.097433 -116.518589 345 11997ft 225kts
30-Dec-20 09:32 34.159484 -116.542928 345 12009ft 236kts
30-Dec-20 09:33 34.223808 -116.568193 345 12013ft 238kts
30-Dec-20 09:34 34.288507 -116.593647 345 12147ft 233kts
30-Dec-20 09:35 34.346494 -116.616499 346 13539ft 202kts
30-Dec-20 09:35 34.390637 -116.633905 346 14818ft 187kts
30-Dec-20 09:37 34.447082 -116.656195 347 16697ft 170kts
30-Dec-20 09:38 34.493156 -116.674407 345 18341ft 174kts
30-Dec-20 09:38 34.507677 -116.727732 289 19733ft 211kts
30-Dec-20 09:40 34.517045 -116.821233 287 20038ft 253kts
30-Dec-20 09:41 34.525696 -116.910879 286 20028ft 266kts
30-Dec-20 09:41 34.532907 -116.985996 286 20019ft 258kts
30-Dec-20 09:42 34.541235 -117.073090 285 20015ft 252kts
30-Dec-20 09:43 34.549397 -117.159329 285 20014ft 249kts
30-Dec-20 09:45 34.558791 -117.259286 285 20016ft 247kts
30-Dec-20 09:45 34.565381 -117.329899 285 20009ft 247kts
30-Dec-20 09:46 34.573178 -117.414030 285 19980ft 247kts
30-Dec-20 09:47 34.580855 -117.497510 285 19979ft 246kts
30-Dec-20 09:48 34.588503 -117.581182 284 19984ft 251kts
30-Dec-20 09:49 34.596490 -117.669423 284 19983ft 261kts
30-Dec-20 09:50 34.604584 -117.759715 284 19980ft 259kts
30-Dec-20 09:51 34.612434 -117.848197 284 19478ft 240kts
30-Dec-20 09:52 34.619552 -117.928119 283 17841ft 235kts
30-Dec-20 09:53 34.626652 -118.009081 282 15815ft 239kts
30-Dec-20 09:54 34.647112 -118.082997 318 13991ft 225kts
30-Dec-20 09:55 34.688077 -118.133639 319 13978ft 195kts
30-Dec-20 09:56 34.728605 -118.183798 318 13994ft 208kts
30-Dec-20 09:57 34.770397 -118.235868 318 13997ft 211kts
30-Dec-20 09:58 34.812957 -118.288986 318 14002ft 212kts
30-Dec-20 09:59 34.855720 -118.342439 318 14006ft 212kts
30-Dec-20 10:00 34.898617 -118.396123 318 13961ft 214kts
30-Dec-20 10:01 34.942126 -118.449140 319 13960ft 214kts
30-Dec-20 10:02 34.985667 -118.502475 317 13930ft 217kts
30-Dec-20 10:03 35.022978 -118.560935 282 12575ft 220kts
30-Dec-20 10:04 35.032725 -118.636613 282 11041ft 218kts
30-Dec-20 10:05 35.043060 -118.710408 281 8996ft 216kts
30-Dec-20 10:06 35.054160 -118.783806 281 6939ft 214kts
30-Dec-20 10:07 35.101543 -118.819512 342 4993ft 203kts
30-Dec-20 10:08 35.147020 -118.839292 342 4954ft 146kts
30-Dec-20 10:09 35.187856 -118.856101 347 4993ft 161kts
30-Dec-20 10:10 35.231942 -118.871387 347 4979ft 156kts
30-Dec-20 10:11 35.276475 -118.887554 346 3732ft 175kts
30-Dec-20 10:12 35.323853 -118.911111 321 2462ft 165kts
30-Dec-20 10:13 35.353044 -118.941059 318 2461ft 118kts
30-Dec-20 10:14 35.375450 -118.972198 302 2411ft 126kts
30-Dec-20 10:15 35.396321 -119.007270 321 2181ft 90kts
30-Dec-20 10:16 35.417784 -119.036993 316 803ft 98kts
30-Dec-20 10:17 35.433587 -119.055901 316 489ft 34kts
30-Dec-20 10:18 35.436568 -119.057814 49 495ft 4kts
30-Dec-20 10:19 35.434544 -119.054725 134 495ft 18kts
30-Dec-20 10:20 35.430148 -119.049531 135 493ft 23kts
30-Dec-20 10:21 35.429831 -119.047240 4 499ft 0kts
30-Dec-20 10:22 35.430195 -119.047011 323 501ft 0kts
30-Dec-20 10:23 35.430195 -119.047011 323 501ft 0kts

Navigation Log

Ident Type
Flight plan parsing failed, navigation log unavailable